sensor_id;sensor_type;location;lat;lon;timestamp;pressure;altitude;pressure_sealevel;temperature;humidity
26083;BME280;13848;49.018;12.078;2023-05-21T00:01:05;97416.94;;;17.79;61.99
26083;BME280;13848;49.018;12.078;2023-05-21T00:03:31;97405.50;;;17.72;62.33
26083;BME280;13848;49.018;12.078;2023-05-21T00:05:58;97397.31;;;17.77;62.58
26083;BME280;13848;49.018;12.078;2023-05-21T00:08:24;97397.03;;;17.74;62.76
26083;BME280;13848;49.018;12.078;2023-05-21T00:10:50;97396.22;;;17.73;62.60
26083;BME280;13848;49.018;12.078;2023-05-21T00:13:16;97385.88;;;17.80;62.51
26083;BME280;13848;49.018;12.078;2023-05-21T00:15:42;97391.56;;;17.84;62.53
26083;BME280;13848;49.018;12.078;2023-05-21T00:18:08;97388.31;;;17.77;62.85
26083;BME280;13848;49.018;12.078;2023-05-21T00:20:34;97384.22;;;17.69;63.44
26083;BME280;13848;49.018;12.078;2023-05-21T00:23:01;97382.00;;;17.71;62.96
26083;BME280;13848;49.018;12.078;2023-05-21T00:25:27;97380.66;;;17.74;63.01
26083;BME280;13848;49.018;12.078;2023-05-21T00:27:53;97386.13;;;17.74;63.49
26083;BME280;13848;49.018;12.078;2023-05-21T00:30:19;97382.56;;;17.68;63.30
26083;BME280;13848;49.018;12.078;2023-05-21T00:32:45;97375.47;;;17.67;63.46
26083;BME280;13848;49.018;12.078;2023-05-21T00:35:11;97376.56;;;17.71;63.62
26083;BME280;13848;49.018;12.078;2023-05-21T00:37:37;97385.84;;;17.70;63.55
26083;BME280;13848;49.018;12.078;2023-05-21T00:40:05;97385.84;;;17.70;63.49
26083;BME280;13848;49.018;12.078;2023-05-21T00:42:32;97380.09;;;17.67;64.00
26083;BME280;13848;49.018;12.078;2023-05-21T00:44:58;97382.00;;;17.71;63.25
26083;BME280;13848;49.018;12.078;2023-05-21T00:47:24;97384.75;;;17.71;63.35
26083;BME280;13848;49.018;12.078;2023-05-21T00:49:50;97376.56;;;17.71;63.98
26083;BME280;13848;49.018;12.078;2023-05-21T00:52:16;97380.94;;;17.62;64.02
26083;BME280;13848;49.018;12.078;2023-05-21T00:54:42;97379.84;;;17.63;64.28
26083;BME280;13848;49.018;12.078;2023-05-21T00:57:09;97375.50;;;17.47;64.83
26083;BME280;13848;49.018;12.078;2023-05-21T00:59:35;97376.03;;;17.54;64.67
26083;BME280;13848;49.018;12.078;2023-05-21T01:02:01;97382.03;;;17.51;64.84
26083;BME280;13848;49.018;12.078;2023-05-21T01:04:28;97379.28;;;17.51;64.97
26083;BME280;13848;49.018;12.078;2023-05-21T01:06:54;97380.69;;;17.43;65.55
26083;BME280;13848;49.018;12.078;2023-05-21T01:09:20;97385.31;;;17.48;65.13
26083;BME280;13848;49.018;12.078;2023-05-21T01:11:49;97385.84;;;17.45;66.09
26083;BME280;13848;49.018;12.078;2023-05-21T01:14:18;97382.88;;;17.41;65.32
26083;BME280;13848;49.018;12.078;2023-05-21T01:16:47;97386.13;;;17.33;66.19
26083;BME280;13848;49.018;12.078;2023-05-21T01:19:15;97385.84;;;17.24;66.53
26083;BME280;13848;49.018;12.078;2023-05-21T01:21:44;97375.50;;;17.26;66.77
26083;BME280;13848;49.018;12.078;2023-05-21T01:24:12;97371.16;;;17.31;66.27
26083;BME280;13848;49.018;12.078;2023-05-21T01:26:38;97376.59;;;17.25;67.37
26083;BME280;13848;49.018;12.078;2023-05-21T01:29:04;97367.31;;;17.32;66.51
26083;BME280;13848;49.018;12.078;2023-05-21T01:31:35;97363.25;;;17.29;66.68
26083;BME280;13848;49.018;12.078;2023-05-21T01:34:08;97367.31;;;17.21;67.55
26083;BME280;13848;49.018;12.078;2023-05-21T01:36:39;97371.97;;;17.11;67.80
26083;BME280;13848;49.018;12.078;2023-05-21T01:39:14;97370.31;;;17.20;67.56
26083;BME280;13848;49.018;12.078;2023-05-21T01:41:42;97369.78;;;17.23;67.01
26083;BME280;13848;49.018;12.078;2023-05-21T01:44:09;97372.22;;;17.19;67.89
26083;BME280;13848;49.018;12.078;2023-05-21T01:46:37;97370.31;;;17.10;67.97
26083;BME280;13848;49.018;12.078;2023-05-21T01:49:03;97355.31;;;17.02;68.51
26083;BME280;13848;49.018;12.078;2023-05-21T01:51:30;97374.09;;;16.98;68.55
26083;BME280;13848;49.018;12.078;2023-05-21T01:53:56;97362.41;;;16.98;69.05
26083;BME280;13848;49.018;12.078;2023-05-21T01:56:23;97357.50;;;16.95;68.70
26083;BME280;13848;49.018;12.078;2023-05-21T01:58:49;97358.31;;;16.85;69.68
26083;BME280;13848;49.018;12.078;2023-05-21T02:01:15;97355.88;;;16.94;68.86
26083;BME280;13848;49.018;12.078;2023-05-21T02:03:41;97356.41;;;16.91;69.55
26083;BME280;13848;49.018;12.078;2023-05-21T02:06:07;97360.22;;;16.90;69.42
26083;BME280;13848;49.018;12.078;2023-05-21T02:08:33;97361.34;;;16.99;68.98
26083;BME280;13848;49.018;12.078;2023-05-21T02:10:59;97359.69;;;17.03;68.44
26083;BME280;13848;49.018;12.078;2023-05-21T02:13:26;97355.88;;;17.09;68.12
26083;BME280;13848;49.018;12.078;2023-05-21T02:15:52;97355.34;;;17.07;68.35
26083;BME280;13848;49.018;12.078;2023-05-21T02:18:18;97351.22;;;17.05;68.50
26083;BME280;13848;49.018;12.078;2023-05-21T02:20:44;97352.06;;;17.05;68.40
26083;BME280;13848;49.018;12.078;2023-05-21T02:23:10;97352.88;;;17.00;68.48
26083;BME280;13848;49.018;12.078;2023-05-21T02:25:36;97359.16;;;17.11;68.21
26083;BME280;13848;49.018;12.078;2023-05-21T02:28:02;97352.06;;;17.15;67.94
26083;BME280;13848;49.018;12.078;2023-05-21T02:30:29;97354.25;;;17.13;68.18
26083;BME280;13848;49.018;12.078;2023-05-21T02:32:55;97355.31;;;16.97;68.80
26083;BME280;13848;49.018;12.078;2023-05-21T02:35:21;97360.78;;;16.97;69.12
26083;BME280;13848;49.018;12.078;2023-05-21T02:37:47;97359.66;;;16.93;68.74
26083;BME280;13848;49.018;12.078;2023-05-21T02:40:13;97352.88;;;17.00;68.53
26083;BME280;13848;49.018;12.078;2023-05-21T02:42:39;97357.53;;;17.05;68.26
26083;BME280;13848;49.018;12.078;2023-05-21T02:45:07;97350.41;;;17.04;68.42
26083;BME280;13848;49.018;12.078;2023-05-21T02:47:34;97350.97;;;17.01;68.62
26083;BME280;13848;49.018;12.078;2023-05-21T02:50:00;97358.59;;;16.99;68.89
26083;BME280;13848;49.018;12.078;2023-05-21T02:52:26;97352.88;;;16.95;68.59
26083;BME280;13848;49.018;12.078;2023-05-21T02:54:52;97359.13;;;16.96;68.46
26083;BME280;13848;49.018;12.078;2023-05-21T02:57:18;97354.78;;;16.90;68.82
26083;BME280;13848;49.018;12.078;2023-05-21T02:59:44;97361.03;;;16.95;68.65
26083;BME280;13848;49.018;12.078;2023-05-21T03:02:10;97349.63;;;16.93;68.79
26083;BME280;13848;49.018;12.078;2023-05-21T03:04:37;97348.50;;;16.89;68.83
26083;BME280;13848;49.018;12.078;2023-05-21T03:07:04;97355.56;;;16.80;68.93
26083;BME280;13848;49.018;12.078;2023-05-21T03:09:30;97354.69;;;16.69;69.75
26083;BME280;13848;49.018;12.078;2023-05-21T03:11:56;97349.25;;;16.64;69.97
26083;BME280;13848;49.018;12.078;2023-05-21T03:14:22;97347.03;;;16.56;70.51
26083;BME280;13848;49.018;12.078;2023-05-21T03:16:48;97352.00;;;16.64;69.75
26083;BME280;13848;49.018;12.078;2023-05-21T03:19:14;97346.53;;;16.69;69.81
26083;BME280;13848;49.018;12.078;2023-05-21T03:21:41;97351.44;;;16.67;70.14
26083;BME280;13848;49.018;12.078;2023-05-21T03:24:07;97350.03;;;16.49;70.19
26083;BME280;13848;49.018;12.078;2023-05-21T03:26:33;97351.41;;;16.57;70.49
26083;BME280;13848;49.018;12.078;2023-05-21T03:28:59;97345.97;;;16.57;70.14
26083;BME280;13848;49.018;12.078;2023-05-21T03:31:25;97354.38;;;16.45;70.60
26083;BME280;13848;49.018;12.078;2023-05-21T03:33:51;97344.59;;;16.49;70.46
26083;BME280;13848;49.018;12.078;2023-05-21T03:36:18;97348.91;;;16.45;70.67
26083;BME280;13848;49.018;12.078;2023-05-21T03:38:45;97351.91;;;16.39;70.77
26083;BME280;13848;49.018;12.078;2023-05-21T03:41:12;97349.19;;;16.39;71.13
26083;BME280;13848;49.018;12.078;2023-05-21T03:43:38;97352.19;;;16.42;70.49
26083;BME280;13848;49.018;12.078;2023-05-21T03:46:04;97362.75;;;16.34;70.72
26083;BME280;13848;49.018;12.078;2023-05-21T03:48:29;97359.78;;;16.35;70.82
26083;BME280;13848;49.018;12.078;2023-05-21T03:50:55;97351.91;;;16.39;70.72
26083;BME280;13848;49.018;12.078;2023-05-21T03:53:21;97358.94;;;16.25;71.81
26083;BME280;13848;49.018;12.078;2023-05-21T03:55:49;97356.25;;;16.30;71.04
26083;BME280;13848;49.018;12.078;2023-05-21T03:58:15;97356.50;;;16.33;70.90
26083;BME280;13848;49.018;12.078;2023-05-21T04:00:41;97363.31;;;16.31;71.37
26083;BME280;13848;49.018;12.078;2023-05-21T04:03:06;97360.59;;;16.36;70.94
26083;BME280;13848;49.018;12.078;2023-05-21T04:05:32;97359.25;;;16.38;71.05
26083;BME280;13848;49.018;12.078;2023-05-21T04:07:58;97356.25;;;16.40;70.85
26083;BME280;13848;49.018;12.078;2023-05-21T04:10:24;97361.69;;;16.30;71.10
26083;BME280;13848;49.018;12.078;2023-05-21T04:12:52;97356.25;;;16.40;70.86
26083;BME280;13848;49.018;12.078;2023-05-21T04:15:18;97359.00;;;16.45;71.07
26083;BME280;13848;49.018;12.078;2023-05-21T04:17:44;97353.03;;;16.48;70.17
26083;BME280;13848;49.018;12.078;2023-05-21T04:20:11;97355.19;;;16.46;70.80
26083;BME280;13848;49.018;12.078;2023-05-21T04:22:37;97353.03;;;16.48;70.57
26083;BME280;13848;49.018;12.078;2023-05-21T04:25:03;97354.38;;;16.45;70.60
26083;BME280;13848;49.018;12.078;2023-05-21T04:27:29;97348.09;;;16.45;70.72
26083;BME280;13848;49.018;12.078;2023-05-21T04:29:57;97355.72;;;16.43;70.56
26083;BME280;13848;49.018;12.078;2023-05-21T04:32:23;97360.41;;;16.53;70.65
26083;BME280;13848;49.018;12.078;2023-05-21T04:34:49;97355.47;;;16.49;70.53
26083;BME280;13848;49.018;12.078;2023-05-21T04:37:15;97363.34;;;16.51;70.52
26083;BME280;13848;49.018;12.078;2023-05-21T04:39:41;97358.44;;;16.43;70.96
26083;BME280;13848;49.018;12.078;2023-05-21T04:42:06;97364.69;;;16.38;71.07
26083;BME280;13848;49.018;12.078;2023-05-21T04:44:32;97366.03;;;16.31;71.32
26083;BME280;13848;49.018;12.078;2023-05-21T04:47:00;97354.38;;;16.45;70.66
26083;BME280;13848;49.018;12.078;2023-05-21T04:49:25;97350.88;;;16.55;70.58
26083;BME280;13848;49.018;12.078;2023-05-21T04:51:51;97360.66;;;16.56;70.31
26083;BME280;13848;49.018;12.078;2023-05-21T04:54:17;97359.66;;;16.72;69.96
26083;BME280;13848;49.018;12.078;2023-05-21T04:56:43;97366.19;;;16.77;69.75
26083;BME280;13848;49.018;12.078;2023-05-21T04:59:09;97359.94;;;16.76;69.52
26083;BME280;13848;49.018;12.078;2023-05-21T05:01:35;97360.19;;;16.80;69.65
26083;BME280;13848;49.018;12.078;2023-05-21T05:04:03;97367.28;;;16.86;69.42
26083;BME280;13848;49.018;12.078;2023-05-21T05:06:29;97359.44;;;16.99;69.54
26083;BME280;13848;49.018;12.078;2023-05-21T05:08:54;97355.34;;;17.07;68.74
26083;BME280;13848;49.018;12.078;2023-05-21T05:11:20;97356.97;;;17.03;68.98
26083;BME280;13848;49.018;12.078;2023-05-21T05:13:46;97366.75;;;17.09;68.87
26083;BME280;13848;49.018;12.078;2023-05-21T05:16:12;97359.66;;;16.93;69.04
26083;BME280;13848;49.018;12.078;2023-05-21T05:18:38;97364.06;;;16.94;68.99
26083;BME280;13848;49.018;12.078;2023-05-21T05:21:06;97365.69;;;17.00;69.02
26083;BME280;13848;49.018;12.078;2023-05-21T05:23:32;97356.44;;;17.06;68.57
26083;BME280;13848;49.018;12.078;2023-05-21T05:25:57;97365.69;;;17.10;68.87
26083;BME280;13848;49.018;12.078;2023-05-21T05:28:23;97359.72;;;17.23;68.80
26083;BME280;13848;49.018;12.078;2023-05-21T05:30:49;97365.97;;;17.34;68.32
26083;BME280;13848;49.018;12.078;2023-05-21T05:33:15;97369.50;;;17.50;68.15
26083;BME280;13848;49.018;12.078;2023-05-21T05:35:41;97370.88;;;17.58;67.90
26083;BME280;13848;49.018;12.078;2023-05-21T05:38:09;97365.94;;;17.65;67.79
26083;BME280;13848;49.018;12.078;2023-05-21T05:40:35;97366.47;;;17.67;67.18
26083;BME280;13848;49.018;12.078;2023-05-21T05:43:00;97362.13;;;17.71;67.22
26083;BME280;13848;49.018;12.078;2023-05-21T05:45:26;97357.50;;;17.87;66.99
26083;BME280;13848;49.018;12.078;2023-05-21T05:47:52;97364.56;;;17.88;66.41
26083;BME280;13848;49.018;12.078;2023-05-21T05:50:18;97362.38;;;17.90;66.46
26083;BME280;13848;49.018;12.078;2023-05-21T05:52:44;97362.88;;;18.07;66.30
26083;BME280;13848;49.018;12.078;2023-05-21T05:55:12;97365.56;;;18.17;65.88
26083;BME280;13848;49.018;12.078;2023-05-21T05:57:38;97365.66;;;17.92;65.41
26083;BME280;13848;49.018;12.078;2023-05-21T06:00:04;97373.81;;;17.97;65.81
26083;BME280;13848;49.018;12.078;2023-05-21T06:02:30;97372.22;;;17.75;65.97
26083;BME280;13848;49.018;12.078;2023-05-21T06:04:56;97368.97;;;17.53;66.31
26083;BME280;13848;49.018;12.078;2023-05-21T06:07:22;97369.50;;;17.80;66.52
26083;BME280;13848;49.018;12.078;2023-05-21T06:09:48;97372.78;;;17.72;65.83
26083;BME280;13848;49.018;12.078;2023-05-21T06:12:16;97370.53;;;17.95;65.55
26083;BME280;13848;49.018;12.078;2023-05-21T06:14:48;97375.47;;;17.98;64.74
26083;BME280;13848;49.018;12.078;2023-05-21T06:17:14;97377.09;;;17.99;64.72
26083;BME280;13848;49.018;12.078;2023-05-21T06:19:40;97375.50;;;17.72;64.98
26083;BME280;13848;49.018;12.078;2023-05-21T06:22:05;97369.75;;;17.84;65.50
26083;BME280;13848;49.018;12.078;2023-05-21T06:24:31;97374.38;;;17.94;65.38
26083;BME280;13848;49.018;12.078;2023-05-21T06:26:57;97368.38;;;17.92;64.84
26083;BME280;13848;49.018;12.078;2023-05-21T06:29:30;97366.69;;;18.06;64.57
26083;BME280;13848;49.018;12.078;2023-05-21T06:31:56;97369.41;;;18.11;64.54
26083;BME280;13848;49.018;12.078;2023-05-21T06:34:22;97374.59;;;18.07;64.79
26083;BME280;13848;49.018;12.078;2023-05-21T06:36:50;97361.53;;;17.99;64.65
26083;BME280;13848;49.018;12.078;2023-05-21T06:39:16;97369.94;;;18.08;64.65
26083;BME280;13848;49.018;12.078;2023-05-21T06:41:42;97372.66;;;18.13;64.62
26083;BME280;13848;49.018;12.078;2023-05-21T06:44:07;97367.72;;;18.20;64.53
26083;BME280;13848;49.018;12.078;2023-05-21T06:46:35;97362.31;;;18.15;64.45
26083;BME280;13848;49.018;12.078;2023-05-21T06:49:01;97368.56;;;18.21;64.01
26083;BME280;13848;49.018;12.078;2023-05-21T06:51:27;97372.63;;;18.28;64.36
26083;BME280;13848;49.018;12.078;2023-05-21T06:53:52;97372.50;;;18.54;64.16
26083;BME280;13848;49.018;12.078;2023-05-21T06:56:18;97369.25;;;18.52;63.44
26083;BME280;13848;49.018;12.078;2023-05-21T06:58:44;97373.66;;;18.43;63.83
26083;BME280;13848;49.018;12.078;2023-05-21T07:01:10;97365.53;;;18.32;63.47
26083;BME280;13848;49.018;12.078;2023-05-21T07:03:37;97372.03;;;18.37;63.45
26083;BME280;13848;49.018;12.078;2023-05-21T07:06:03;97367.34;;;18.47;63.20
26083;BME280;13848;49.018;12.078;2023-05-21T07:08:29;97377.41;;;18.57;63.32
26083;BME280;13848;49.018;12.078;2023-05-21T07:10:55;97371.34;;;18.75;62.94
26083;BME280;13848;49.018;12.078;2023-05-21T07:13:21;97377.31;;;18.77;62.40
26083;BME280;13848;49.018;12.078;2023-05-21T07:15:47;97371.50;;;18.89;62.23
26083;BME280;13848;49.018;12.078;2023-05-21T07:18:13;97370.09;;;19.02;62.23
26083;BME280;13848;49.018;12.078;2023-05-21T07:20:40;97372.63;;;18.88;61.98
26083;BME280;13848;49.018;12.078;2023-05-21T07:23:07;97368.88;;;18.79;61.65
26083;BME280;13848;49.018;12.078;2023-05-21T07:25:33;97377.28;;;18.87;61.81
26083;BME280;13848;49.018;12.078;2023-05-21T07:27:59;97364.63;;;19.02;61.25
26083;BME280;13848;49.018;12.078;2023-05-21T07:30:24;97365.59;;;19.16;61.16
26083;BME280;13848;49.018;12.078;2023-05-21T07:32:50;97368.13;;;19.41;60.93
26083;BME280;13848;49.018;12.078;2023-05-21T07:35:17;97373.53;;;19.47;60.02
26083;BME280;13848;49.018;12.078;2023-05-21T07:37:44;97370.91;;;19.71;59.94
26083;BME280;13848;49.018;12.078;2023-05-21T07:40:11;97376.34;;;20.00;59.96
26083;BME280;13848;49.018;12.078;2023-05-21T07:42:37;97380.75;;;19.72;58.87
26083;BME280;13848;49.018;12.078;2023-05-21T07:45:04;97369.94;;;19.85;59.19
26083;BME280;13848;49.018;12.078;2023-05-21T07:47:30;97359.47;;;19.92;58.75
26083;BME280;13848;49.018;12.078;2023-05-21T07:49:56;97373.03;;;20.27;58.33
26083;BME280;13848;49.018;12.078;2023-05-21T07:52:22;97378.81;;;20.25;57.72
26083;BME280;13848;49.018;12.078;2023-05-21T07:54:49;97384.69;;;20.37;56.94
26083;BME280;13848;49.018;12.078;2023-05-21T07:57:15;97374.84;;;20.36;57.60
26083;BME280;13848;49.018;12.078;2023-05-21T07:59:41;97378.47;;;20.56;57.00
26083;BME280;13848;49.018;12.078;2023-05-21T08:02:07;97369.81;;;20.67;56.08
26083;BME280;13848;49.018;12.078;2023-05-21T08:04:33;97359.69;;;21.06;56.40
26083;BME280;13848;49.018;12.078;2023-05-21T08:06:59;97368.13;;;21.09;55.21
26083;BME280;13848;49.018;12.078;2023-05-21T08:09:25;97377.09;;;21.15;54.30
26083;BME280;13848;49.018;12.078;2023-05-21T08:11:52;97368.00;;;20.82;55.60
26083;BME280;13848;49.018;12.078;2023-05-21T08:14:18;97369.47;;;21.12;55.34
26083;BME280;13848;49.018;12.078;2023-05-21T08:16:45;97372.19;;;20.93;55.08
26083;BME280;13848;49.018;12.078;2023-05-21T08:19:11;97360.16;;;20.94;55.24
26083;BME280;13848;49.018;12.078;2023-05-21T08:21:36;97368.28;;;21.18;55.09
26083;BME280;13848;49.018;12.078;2023-05-21T08:24:02;97368.63;;;21.49;54.45
26083;BME280;13848;49.018;12.078;2023-05-21T08:26:28;97366.00;;;21.58;53.96
26083;BME280;13848;49.018;12.078;2023-05-21T08:28:56;97366.06;;;21.85;54.25
26083;BME280;13848;49.018;12.078;2023-05-21T08:31:22;97371.41;;;21.63;53.07
26083;BME280;13848;49.018;12.078;2023-05-21T08:33:51;97375.94;;;21.54;53.85
26083;BME280;13848;49.018;12.078;2023-05-21T08:36:17;97374.25;;;21.58;53.95
26083;BME280;13848;49.018;12.078;2023-05-21T08:38:43;97376.81;;;21.35;54.36
26083;BME280;13848;49.018;12.078;2023-05-21T08:41:10;97369.97;;;21.51;53.76
26083;BME280;13848;49.018;12.078;2023-05-21T08:43:37;97375.53;;;21.46;53.93
26083;BME280;13848;49.018;12.078;2023-05-21T08:46:05;97365.59;;;21.13;54.63
26083;BME280;13848;49.018;12.078;2023-05-21T08:48:33;97361.25;;;21.31;54.74
26083;BME280;13848;49.018;12.078;2023-05-21T08:51:01;97360.47;;;21.25;55.23
26083;BME280;13848;49.018;12.078;2023-05-21T08:53:27;97362.31;;;21.48;54.73
26083;BME280;13848;49.018;12.078;2023-05-21T08:55:54;97366.97;;;21.34;55.05
26083;BME280;13848;49.018;12.078;2023-05-21T08:58:21;97362.19;;;21.40;55.26
26083;BME280;13848;49.018;12.078;2023-05-21T09:00:47;97357.75;;;21.25;55.02
26083;BME280;13848;49.018;12.078;2023-05-21T09:03:14;97362.63;;;21.47;54.43
26083;BME280;13848;49.018;12.078;2023-05-21T09:05:41;97361.28;;;21.44;54.56
26083;BME280;13848;49.018;12.078;2023-05-21T09:08:12;97363.28;;;21.39;54.14
26083;BME280;13848;49.018;12.078;2023-05-21T09:10:44;97364.34;;;21.57;53.43
26083;BME280;13848;49.018;12.078;2023-05-21T09:13:11;97355.63;;;22.01;53.81
26083;BME280;13848;49.018;12.078;2023-05-21T09:15:37;97364.56;;;22.07;52.58
26083;BME280;13848;49.018;12.078;2023-05-21T09:18:03;97354.53;;;22.16;52.14
26083;BME280;13848;49.018;12.078;2023-05-21T09:20:30;97353.31;;;22.22;51.30
26083;BME280;13848;49.018;12.078;2023-05-21T09:23:02;97349.97;;;22.39;51.08
26083;BME280;13848;49.018;12.078;2023-05-21T09:25:28;97354.13;;;22.50;50.22
26083;BME280;13848;49.018;12.078;2023-05-21T09:27:54;97346.78;;;22.59;49.36
26083;BME280;13848;49.018;12.078;2023-05-21T09:30:20;97364.06;;;22.87;48.61
26083;BME280;13848;49.018;12.078;2023-05-21T09:32:54;97358.25;;;22.75;47.41
26083;BME280;13848;49.018;12.078;2023-05-21T09:35:21;97357.34;;;22.66;46.91
26083;BME280;13848;49.018;12.078;2023-05-21T09:37:50;97357.34;;;22.79;46.58
26083;BME280;13848;49.018;12.078;2023-05-21T09:40:17;97360.19;;;22.74;46.13
26083;BME280;13848;49.018;12.078;2023-05-21T09:42:45;97355.69;;;22.78;45.92
26083;BME280;13848;49.018;12.078;2023-05-21T09:45:12;97368.44;;;22.88;45.89
26083;BME280;13848;49.018;12.078;2023-05-21T09:47:43;97348.31;;;23.01;45.84
26083;BME280;13848;49.018;12.078;2023-05-21T09:50:09;97348.25;;;22.93;44.65
26083;BME280;13848;49.018;12.078;2023-05-21T09:52:36;97351.63;;;22.90;44.66
26083;BME280;13848;49.018;12.078;2023-05-21T09:55:04;97347.72;;;23.04;45.54
26083;BME280;13848;49.018;12.078;2023-05-21T09:57:30;97349.34;;;23.05;45.21
26083;BME280;13848;49.018;12.078;2023-05-21T09:59:57;97359.41;;;23.10;44.59
26083;BME280;13848;49.018;12.078;2023-05-21T10:02:23;97345.88;;;23.00;43.95
26083;BME280;13848;49.018;12.078;2023-05-21T10:04:50;97361.81;;;22.89;44.90
26083;BME280;13848;49.018;12.078;2023-05-21T10:07:18;97350.97;;;23.06;44.67
26083;BME280;13848;49.018;12.078;2023-05-21T10:09:45;97347.63;;;23.32;45.06
26083;BME280;13848;49.018;12.078;2023-05-21T10:12:15;97338.22;;;23.33;44.45
26083;BME280;13848;49.018;12.078;2023-05-21T10:14:44;97355.88;;;23.54;43.75
26083;BME280;13848;49.018;12.078;2023-05-21T10:17:11;97343.84;;;23.50;43.88
26083;BME280;13848;49.018;12.078;2023-05-21T10:19:38;97346.97;;;23.35;41.93
26083;BME280;13848;49.018;12.078;2023-05-21T10:22:05;97338.47;;;23.23;42.59
26083;BME280;13848;49.018;12.078;2023-05-21T10:24:31;97341.22;;;23.45;42.61
26083;BME280;13848;49.018;12.078;2023-05-21T10:26:58;97344.09;;;23.40;42.21
26083;BME280;13848;49.018;12.078;2023-05-21T10:29:26;97353.59;;;23.34;42.34
26083;BME280;13848;49.018;12.078;2023-05-21T10:31:53;97331.66;;;23.43;42.50
26083;BME280;13848;49.018;12.078;2023-05-21T10:34:20;97333.84;;;23.54;42.51
26083;BME280;13848;49.018;12.078;2023-05-21T10:36:48;97332.88;;;23.59;42.38
26083;BME280;13848;49.018;12.078;2023-05-21T10:39:15;97334.81;;;23.81;42.96
26083;BME280;13848;49.018;12.078;2023-05-21T10:41:48;97344.34;;;23.52;41.13
26083;BME280;13848;49.018;12.078;2023-05-21T10:44:23;97336.88;;;23.67;41.32
26083;BME280;13848;49.018;12.078;2023-05-21T10:50:10;97334.16;;;24.06;41.20
26083;BME280;13848;49.018;12.078;2023-05-21T10:52:51;97322.22;;;23.88;39.51
26083;BME280;13848;49.018;12.078;2023-05-21T10:55:29;97335.84;;;23.94;40.16
26083;BME280;13848;49.018;12.078;2023-05-21T10:58:50;97330.34;;;23.94;39.25
26083;BME280;13848;49.018;12.078;2023-05-21T11:01:19;97334.78;;;24.03;38.33
26083;BME280;13848;49.018;12.078;2023-05-21T11:03:46;97327.78;;;24.06;39.06
26083;BME280;13848;49.018;12.078;2023-05-21T11:06:21;97335.22;;;23.97;37.98
26083;BME280;13848;49.018;12.078;2023-05-21T11:08:47;97332.81;;;23.95;38.33
26083;BME280;13848;49.018;12.078;2023-05-21T11:11:40;97340.81;;;24.14;38.44
26083;BME280;13848;49.018;12.078;2023-05-21T11:14:24;97332.50;;;24.05;37.77
26083;BME280;13848;49.018;12.078;2023-05-21T11:16:50;97321.91;;;24.30;37.62
26083;BME280;13848;49.018;12.078;2023-05-21T11:19:18;97336.66;;;24.34;37.37
26083;BME280;13848;49.018;12.078;2023-05-21T11:21:49;97331.22;;;24.11;37.14
26083;BME280;13848;49.018;12.078;2023-05-21T11:24:18;97333.97;;;24.11;36.71
26083;BME280;13848;49.018;12.078;2023-05-21T11:27:00;97335.03;;;24.24;36.42
26083;BME280;13848;49.018;12.078;2023-05-21T11:29:31;97329.41;;;24.38;37.38
26083;BME280;13848;49.018;12.078;2023-05-21T11:32:01;97337.59;;;24.21;36.21
26083;BME280;13848;49.018;12.078;2023-05-21T11:34:35;97329.25;;;24.03;37.39
26083;BME280;13848;49.018;12.078;2023-05-21T11:37:24;97332.28;;;24.33;37.42
26083;BME280;13848;49.018;12.078;2023-05-21T11:39:52;97345.81;;;24.43;36.11
26083;BME280;13848;49.018;12.078;2023-05-21T11:42:27;97331.41;;;24.15;36.38
26083;BME280;13848;49.018;12.078;2023-05-21T11:44:55;97338.88;;;24.23;36.83
26083;BME280;13848;49.018;12.078;2023-05-21T11:47:22;97331.22;;;24.11;36.63
26083;BME280;13848;49.018;12.078;2023-05-21T11:49:50;97335.25;;;24.05;36.42
26083;BME280;13848;49.018;12.078;2023-05-21T11:52:16;97330.03;;;23.95;36.84
26083;BME280;13848;49.018;12.078;2023-05-21T11:54:42;97326.19;;;24.05;37.77
26083;BME280;13848;49.018;12.078;2023-05-21T11:57:09;97326.78;;;24.33;37.48
26083;BME280;13848;49.018;12.078;2023-05-21T11:59:35;97323.47;;;24.13;37.47
26083;BME280;13848;49.018;12.078;2023-05-21T12:02:01;97333.00;;;24.07;37.00
26083;BME280;13848;49.018;12.078;2023-05-21T12:04:28;97319.31;;;24.25;38.12
26083;BME280;13848;49.018;12.078;2023-05-21T12:06:56;97331.06;;;24.08;37.45
26083;BME280;13848;49.018;12.078;2023-05-21T12:09:22;97323.28;;;24.10;37.58
26083;BME280;13848;49.018;12.078;2023-05-21T12:11:48;97322.00;;;24.16;37.42
26083;BME280;13848;49.018;12.078;2023-05-21T12:14:14;97312.50;;;24.31;37.91
26083;BME280;13848;49.018;12.078;2023-05-21T12:16:40;97323.19;;;24.24;37.27
26083;BME280;13848;49.018;12.078;2023-05-21T12:19:06;97322.28;;;24.37;37.05
26083;BME280;13848;49.018;12.078;2023-05-21T12:21:32;97318.56;;;24.50;36.00
26083;BME280;13848;49.018;12.078;2023-05-21T12:24:00;97324.13;;;24.59;36.14
26083;BME280;13848;49.018;12.078;2023-05-21T12:26:27;97327.03;;;24.54;36.21
26083;BME280;13848;49.018;12.078;2023-05-21T12:28:53;97318.72;;;24.45;35.78
26083;BME280;13848;49.018;12.078;2023-05-21T12:31:20;97332.06;;;24.60;36.62
26083;BME280;13848;49.018;12.078;2023-05-21T12:33:46;97315.47;;;24.43;36.14
26083;BME280;13848;49.018;12.078;2023-05-21T12:36:20;97307.41;;;24.55;37.05
26083;BME280;13848;49.018;12.078;2023-05-21T12:38:46;97316.84;;;24.72;36.68
26083;BME280;13848;49.018;12.078;2023-05-21T12:41:15;97312.13;;;24.81;36.92
26083;BME280;13848;49.018;12.078;2023-05-21T12:43:41;97312.63;;;25.00;36.46
26083;BME280;13848;49.018;12.078;2023-05-21T12:46:09;97311.31;;;24.72;36.12
26083;BME280;13848;49.018;12.078;2023-05-21T12:48:36;97315.22;;;24.71;36.57
26083;BME280;13848;49.018;12.078;2023-05-21T12:51:02;97319.09;;;24.87;36.68
26083;BME280;13848;49.018;12.078;2023-05-21T12:53:35;97315.44;;;25.17;36.55